sensor_id;sensor_type;location;lat;lon;timestamp;P1;durP1;ratioP1;P2;durP2;ratioP2
59856;SDS011;45733;52.668;6.860;2023-07-29T00:00:49;0.55;;;0.55;;
59856;SDS011;45733;52.668;6.860;2023-07-29T00:03:18;0.40;;;0.40;;
59856;SDS011;45733;52.668;6.860;2023-07-29T00:05:44;0.40;;;0.40;;
59856;SDS011;45733;52.668;6.860;2023-07-29T00:08:09;0.40;;;0.40;;
59856;SDS011;45733;52.668;6.860;2023-07-29T00:10:35;0.50;;;0.50;;
59856;SDS011;45733;52.668;6.860;2023-07-29T00:13:04;0.40;;;0.40;;
59856;SDS011;45733;52.668;6.860;2023-07-29T00:15:31;0.43;;;0.43;;
59856;SDS011;45733;52.668;6.860;2023-07-29T00:17:57;0.40;;;0.40;;
59856;SDS011;45733;52.668;6.860;2023-07-29T00:20:22;0.40;;;0.40;;
59856;SDS011;45733;52.668;6.860;2023-07-29T00:22:48;0.40;;;0.40;;
59856;SDS011;45733;52.668;6.860;2023-07-29T00:25:21;0.40;;;0.40;;
59856;SDS011;45733;52.668;6.860;2023-07-29T00:27:47;0.40;;;0.40;;
59856;SDS011;45733;52.668;6.860;2023-07-29T00:30:12;0.40;;;0.40;;
59856;SDS011;45733;52.668;6.860;2023-07-29T00:32:38;0.50;;;0.50;;
59856;SDS011;45733;52.668;6.860;2023-07-29T00:35:04;0.40;;;0.40;;
59856;SDS011;45733;52.668;6.860;2023-07-29T00:37:30;0.50;;;0.50;;
59856;SDS011;45733;52.668;6.860;2023-07-29T00:39:56;0.40;;;0.40;;
59856;SDS011;45733;52.668;6.860;2023-07-29T00:42:23;0.40;;;0.40;;
59856;SDS011;45733;52.668;6.860;2023-07-29T00:44:49;0.40;;;0.40;;
59856;SDS011;45733;52.668;6.860;2023-07-29T00:47:15;0.40;;;0.40;;
59856;SDS011;45733;52.668;6.860;2023-07-29T00:49:41;0.40;;;0.40;;
59856;SDS011;45733;52.668;6.860;2023-07-29T00:52:10;0.40;;;0.40;;
59856;SDS011;45733;52.668;6.860;2023-07-29T00:54:40;0.63;;;0.63;;
59856;SDS011;45733;52.668;6.860;2023-07-29T00:57:08;0.45;;;0.45;;
59856;SDS011;45733;52.668;6.860;2023-07-29T00:59:35;0.40;;;0.40;;
59856;SDS011;45733;52.668;6.860;2023-07-29T01:02:03;0.40;;;0.40;;
59856;SDS011;45733;52.668;6.860;2023-07-29T01:04:32;0.40;;;0.40;;
59856;SDS011;45733;52.668;6.860;2023-07-29T01:10:00;0.50;;;0.50;;
59856;SDS011;45733;52.668;6.860;2023-07-29T01:12:48;0.50;;;0.50;;
59856;SDS011;45733;52.668;6.860;2023-07-29T01:15:46;0.50;;;0.50;;
59856;SDS011;45733;52.668;6.860;2023-07-29T01:18:23;0.50;;;0.50;;
59856;SDS011;45733;52.668;6.860;2023-07-29T01:21:03;0.50;;;0.50;;
59856;SDS011;45733;52.668;6.860;2023-07-29T01:23:35;0.50;;;0.50;;
59856;SDS011;45733;52.668;6.860;2023-07-29T01:26:01;0.55;;;0.55;;
59856;SDS011;45733;52.668;6.860;2023-07-29T01:28:28;0.50;;;0.50;;
59856;SDS011;45733;52.668;6.860;2023-07-29T01:31:18;0.50;;;0.50;;
59856;SDS011;45733;52.668;6.860;2023-07-29T01:36:40;0.60;;;0.60;;
59856;SDS011;45733;52.668;6.860;2023-07-29T01:39:08;0.52;;;0.52;;
59856;SDS011;45733;52.668;6.860;2023-07-29T01:41:36;0.50;;;0.50;;
59856;SDS011;45733;52.668;6.860;2023-07-29T01:44:02;0.52;;;0.52;;
59856;SDS011;45733;52.668;6.860;2023-07-29T01:46:29;0.60;;;0.60;;
59856;SDS011;45733;52.668;6.860;2023-07-29T01:49:00;0.60;;;0.60;;
59856;SDS011;45733;52.668;6.860;2023-07-29T01:51:25;0.60;;;0.60;;
59856;SDS011;45733;52.668;6.860;2023-07-29T01:53:51;0.52;;;0.52;;
59856;SDS011;45733;52.668;6.860;2023-07-29T01:56:20;0.57;;;0.57;;
59856;SDS011;45733;52.668;6.860;2023-07-29T01:58:46;0.50;;;0.50;;
59856;SDS011;45733;52.668;6.860;2023-07-29T02:01:15;0.60;;;0.60;;
59856;SDS011;45733;52.668;6.860;2023-07-29T02:03:41;0.57;;;0.57;;
59856;SDS011;45733;52.668;6.860;2023-07-29T02:06:22;0.57;;;0.57;;
59856;SDS011;45733;52.668;6.860;2023-07-29T02:09:07;0.60;;;0.60;;
59856;SDS011;45733;52.668;6.860;2023-07-29T02:11:42;0.65;;;0.65;;
59856;SDS011;45733;52.668;6.860;2023-07-29T02:14:26;0.60;;;0.60;;
59856;SDS011;45733;52.668;6.860;2023-07-29T02:19:43;0.60;;;0.60;;
59856;SDS011;45733;52.668;6.860;2023-07-29T02:22:16;0.60;;;0.60;;
59856;SDS011;45733;52.668;6.860;2023-07-29T02:24:45;0.63;;;0.63;;
59856;SDS011;45733;52.668;6.860;2023-07-29T02:27:35;0.60;;;0.60;;
59856;SDS011;45733;52.668;6.860;2023-07-29T02:30:06;0.68;;;0.68;;
59856;SDS011;45733;52.668;6.860;2023-07-29T02:32:41;0.68;;;0.68;;
59856;SDS011;45733;52.668;6.860;2023-07-29T02:35:07;0.70;;;0.70;;
59856;SDS011;45733;52.668;6.860;2023-07-29T02:37:56;0.70;;;0.70;;
59856;SDS011;45733;52.668;6.860;2023-07-29T02:40:25;0.60;;;0.60;;
59856;SDS011;45733;52.668;6.860;2023-07-29T02:43:06;0.70;;;0.70;;
59856;SDS011;45733;52.668;6.860;2023-07-29T02:45:32;0.70;;;0.70;;
59856;SDS011;45733;52.668;6.860;2023-07-29T02:51:32;0.68;;;0.68;;
59856;SDS011;45733;52.668;6.860;2023-07-29T02:54:01;0.80;;;0.80;;
59856;SDS011;45733;52.668;6.860;2023-07-29T02:56:35;0.80;;;0.80;;
59856;SDS011;45733;52.668;6.860;2023-07-29T02:59:03;0.65;;;0.65;;
59856;SDS011;45733;52.668;6.860;2023-07-29T03:04:35;0.75;;;0.75;;
59856;SDS011;45733;52.668;6.860;2023-07-29T03:11:17;0.80;;;0.80;;
59856;SDS011;45733;52.668;6.860;2023-07-29T03:17:30;0.70;;;0.70;;
59856;SDS011;45733;52.668;6.860;2023-07-29T03:19:59;0.70;;;0.70;;
59856;SDS011;45733;52.668;6.860;2023-07-29T03:22:25;0.80;;;0.80;;
59856;SDS011;45733;52.668;6.860;2023-07-29T03:24:58;0.70;;;0.70;;
59856;SDS011;45733;52.668;6.860;2023-07-29T03:27:23;0.80;;;0.80;;
59856;SDS011;45733;52.668;6.860;2023-07-29T03:29:49;0.80;;;0.80;;
59856;SDS011;45733;52.668;6.860;2023-07-29T03:32:15;1.00;;;1.00;;
59856;SDS011;45733;52.668;6.860;2023-07-29T03:34:41;0.80;;;0.80;;
59856;SDS011;45733;52.668;6.860;2023-07-29T03:37:06;0.80;;;0.80;;
59856;SDS011;45733;52.668;6.860;2023-07-29T03:39:35;1.00;;;1.00;;
59856;SDS011;45733;52.668;6.860;2023-07-29T03:42:01;0.90;;;0.90;;
59856;SDS011;45733;52.668;6.860;2023-07-29T03:44:27;0.90;;;0.90;;
59856;SDS011;45733;52.668;6.860;2023-07-29T03:46:52;0.90;;;0.90;;
59856;SDS011;45733;52.668;6.860;2023-07-29T03:49:18;1.00;;;1.00;;
59856;SDS011;45733;52.668;6.860;2023-07-29T03:51:44;1.00;;;1.00;;
59856;SDS011;45733;52.668;6.860;2023-07-29T03:54:10;0.98;;;0.98;;
59856;SDS011;45733;52.668;6.860;2023-07-29T03:56:36;1.00;;;1.00;;
59856;SDS011;45733;52.668;6.860;2023-07-29T03:59:03;0.90;;;0.90;;
59856;SDS011;45733;52.668;6.860;2023-07-29T04:01:31;1.00;;;1.00;;
59856;SDS011;45733;52.668;6.860;2023-07-29T04:03:57;1.00;;;1.00;;
59856;SDS011;45733;52.668;6.860;2023-07-29T04:06:26;1.00;;;1.00;;
59856;SDS011;45733;52.668;6.860;2023-07-29T04:08:52;1.02;;;1.02;;
59856;SDS011;45733;52.668;6.860;2023-07-29T04:11:23;1.00;;;1.00;;
59856;SDS011;45733;52.668;6.860;2023-07-29T04:13:49;1.00;;;1.00;;
59856;SDS011;45733;52.668;6.860;2023-07-29T04:16:15;1.02;;;1.02;;
59856;SDS011;45733;52.668;6.860;2023-07-29T04:18:41;1.00;;;1.00;;
59856;SDS011;45733;52.668;6.860;2023-07-29T04:21:07;1.20;;;1.20;;
59856;SDS011;45733;52.668;6.860;2023-07-29T04:23:34;0.95;;;0.95;;
59856;SDS011;45733;52.668;6.860;2023-07-29T04:26:00;1.20;;;1.20;;
59856;SDS011;45733;52.668;6.860;2023-07-29T04:28:28;1.60;;;1.50;;
59856;SDS011;45733;52.668;6.860;2023-07-29T04:30:54;1.20;;;1.20;;
59856;SDS011;45733;52.668;6.860;2023-07-29T04:33:20;1.20;;;1.20;;
59856;SDS011;45733;52.668;6.860;2023-07-29T04:35:46;1.10;;;1.10;;
59856;SDS011;45733;52.668;6.860;2023-07-29T04:42:12;1.20;;;1.20;;
59856;SDS011;45733;52.668;6.860;2023-07-29T04:44:38;1.20;;;1.20;;
59856;SDS011;45733;52.668;6.860;2023-07-29T04:47:03;1.20;;;1.20;;
59856;SDS011;45733;52.668;6.860;2023-07-29T04:49:29;1.30;;;1.30;;
59856;SDS011;45733;52.668;6.860;2023-07-29T04:54:47;1.20;;;1.20;;
59856;SDS011;45733;52.668;6.860;2023-07-29T04:57:12;1.50;;;1.40;;
59856;SDS011;45733;52.668;6.860;2023-07-29T04:59:41;1.55;;;1.45;;
59856;SDS011;45733;52.668;6.860;2023-07-29T05:02:07;1.40;;;1.40;;
59856;SDS011;45733;52.668;6.860;2023-07-29T05:04:33;1.30;;;1.30;;
59856;SDS011;45733;52.668;6.860;2023-07-29T05:06:58;1.50;;;1.40;;
59856;SDS011;45733;52.668;6.860;2023-07-29T05:09:24;1.50;;;1.40;;
59856;SDS011;45733;52.668;6.860;2023-07-29T05:11:50;1.30;;;1.30;;
59856;SDS011;45733;52.668;6.860;2023-07-29T05:14:17;1.55;;;1.45;;
59856;SDS011;45733;52.668;6.860;2023-07-29T05:16:43;1.50;;;1.40;;
59856;SDS011;45733;52.668;6.860;2023-07-29T05:19:09;1.45;;;1.40;;
59856;SDS011;45733;52.668;6.860;2023-07-29T05:21:35;1.50;;;1.40;;
59856;SDS011;45733;52.668;6.860;2023-07-29T05:24:02;1.50;;;1.40;;
59856;SDS011;45733;52.668;6.860;2023-07-29T05:26:28;1.33;;;1.33;;
59856;SDS011;45733;52.668;6.860;2023-07-29T05:29:00;1.60;;;1.50;;
59856;SDS011;45733;52.668;6.860;2023-07-29T05:31:25;1.52;;;1.42;;
59856;SDS011;45733;52.668;6.860;2023-07-29T05:33:51;1.50;;;1.40;;
59856;SDS011;45733;52.668;6.860;2023-07-29T05:36:17;1.50;;;1.40;;
59856;SDS011;45733;52.668;6.860;2023-07-29T05:38:42;1.50;;;1.40;;
59856;SDS011;45733;52.668;6.860;2023-07-29T05:41:08;1.50;;;1.40;;
59856;SDS011;45733;52.668;6.860;2023-07-29T05:43:37;1.70;;;1.60;;
59856;SDS011;45733;52.668;6.860;2023-07-29T05:46:03;1.50;;;1.40;;
59856;SDS011;45733;52.668;6.860;2023-07-29T05:48:29;1.60;;;1.50;;
59856;SDS011;45733;52.668;6.860;2023-07-29T05:50:54;1.60;;;1.50;;
59856;SDS011;45733;52.668;6.860;2023-07-29T05:53:29;1.60;;;1.50;;
59856;SDS011;45733;52.668;6.860;2023-07-29T05:56:03;1.60;;;1.50;;
59856;SDS011;45733;52.668;6.860;2023-07-29T05:58:32;1.60;;;1.50;;
59856;SDS011;45733;52.668;6.860;2023-07-29T06:03:49;1.52;;;1.42;;
59856;SDS011;45733;52.668;6.860;2023-07-29T06:09:09;1.60;;;1.50;;
59856;SDS011;45733;52.668;6.860;2023-07-29T06:11:35;1.60;;;1.50;;
59856;SDS011;45733;52.668;6.860;2023-07-29T06:14:01;1.50;;;1.40;;
59856;SDS011;45733;52.668;6.860;2023-07-29T06:16:26;1.50;;;1.40;;
59856;SDS011;45733;52.668;6.860;2023-07-29T06:18:52;1.30;;;1.30;;
59856;SDS011;45733;52.668;6.860;2023-07-29T06:21:18;1.33;;;1.33;;
59856;SDS011;45733;52.668;6.860;2023-07-29T06:23:45;1.60;;;1.50;;
59856;SDS011;45733;52.668;6.860;2023-07-29T06:26:13;1.52;;;1.42;;
59856;SDS011;45733;52.668;6.860;2023-07-29T06:28:39;1.35;;;1.35;;
59856;SDS011;45733;52.668;6.860;2023-07-29T06:31:07;1.58;;;1.48;;
59856;SDS011;45733;52.668;6.860;2023-07-29T06:33:33;1.65;;;1.55;;
59856;SDS011;45733;52.668;6.860;2023-07-29T06:35:58;1.63;;;1.52;;
59856;SDS011;45733;52.668;6.860;2023-07-29T06:38:24;1.63;;;1.52;;
59856;SDS011;45733;52.668;6.860;2023-07-29T06:40:50;1.67;;;1.58;;
59856;SDS011;45733;52.668;6.860;2023-07-29T06:43:16;1.55;;;1.45;;
59856;SDS011;45733;52.668;6.860;2023-07-29T06:45:45;1.38;;;1.35;;
59856;SDS011;45733;52.668;6.860;2023-07-29T06:48:10;1.27;;;1.27;;
59856;SDS011;45733;52.668;6.860;2023-07-29T06:50:36;1.60;;;1.50;;
59856;SDS011;45733;52.668;6.860;2023-07-29T06:53:05;1.27;;;1.27;;
59856;SDS011;45733;52.668;6.860;2023-07-29T06:55:34;1.48;;;1.40;;
59856;SDS011;45733;52.668;6.860;2023-07-29T06:58:00;1.63;;;1.52;;
59856;SDS011;45733;52.668;6.860;2023-07-29T07:00:25;1.63;;;1.52;;
59856;SDS011;45733;52.668;6.860;2023-07-29T07:02:51;1.60;;;1.50;;
59856;SDS011;45733;52.668;6.860;2023-07-29T07:05:17;1.60;;;1.50;;
59856;SDS011;45733;52.668;6.860;2023-07-29T07:07:48;1.60;;;1.50;;
59856;SDS011;45733;52.668;6.860;2023-07-29T07:10:14;1.52;;;1.42;;
59856;SDS011;45733;52.668;6.860;2023-07-29T07:12:40;1.70;;;1.60;;
59856;SDS011;45733;52.668;6.860;2023-07-29T07:15:06;1.63;;;1.52;;
59856;SDS011;45733;52.668;6.860;2023-07-29T07:17:32;1.45;;;1.38;;
59856;SDS011;45733;52.668;6.860;2023-07-29T07:19:57;1.50;;;1.42;;
59856;SDS011;45733;52.668;6.860;2023-07-29T07:22:23;1.52;;;1.42;;
59856;SDS011;45733;52.668;6.860;2023-07-29T07:24:49;1.42;;;1.40;;
59856;SDS011;45733;52.668;6.860;2023-07-29T07:27:14;1.45;;;1.38;;
59856;SDS011;45733;52.668;6.860;2023-07-29T07:29:40;1.42;;;1.40;;
59856;SDS011;45733;52.668;6.860;2023-07-29T07:32:06;1.38;;;1.35;;
59856;SDS011;45733;52.668;6.860;2023-07-29T07:34:31;1.25;;;1.25;;
59856;SDS011;45733;52.668;6.860;2023-07-29T07:36:58;1.35;;;1.35;;
59856;SDS011;45733;52.668;6.860;2023-07-29T07:39:24;1.30;;;1.30;;
59856;SDS011;45733;52.668;6.860;2023-07-29T07:41:52;1.15;;;1.15;;
59856;SDS011;45733;52.668;6.860;2023-07-29T07:44:18;1.02;;;1.02;;
59856;SDS011;45733;52.668;6.860;2023-07-29T07:46:45;0.90;;;0.90;;
59856;SDS011;45733;52.668;6.860;2023-07-29T07:49:10;1.13;;;1.13;;
59856;SDS011;45733;52.668;6.860;2023-07-29T07:51:38;1.08;;;1.08;;
59856;SDS011;45733;52.668;6.860;2023-07-29T07:54:04;0.93;;;0.93;;
59856;SDS011;45733;52.668;6.860;2023-07-29T07:56:29;0.77;;;0.77;;
59856;SDS011;45733;52.668;6.860;2023-07-29T07:58:55;1.13;;;1.13;;
59856;SDS011;45733;52.668;6.860;2023-07-29T08:01:21;1.13;;;1.13;;
59856;SDS011;45733;52.668;6.860;2023-07-29T08:03:46;0.95;;;0.95;;
59856;SDS011;45733;52.668;6.860;2023-07-29T08:06:15;0.93;;;0.93;;
59856;SDS011;45733;52.668;6.860;2023-07-29T08:08:40;0.60;;;0.60;;
59856;SDS011;45733;52.668;6.860;2023-07-29T08:11:06;0.90;;;0.90;;
59856;SDS011;45733;52.668;6.860;2023-07-29T08:13:32;0.90;;;0.90;;
59856;SDS011;45733;52.668;6.860;2023-07-29T08:15:57;0.85;;;0.85;;
59856;SDS011;45733;52.668;6.860;2023-07-29T08:18:23;0.80;;;0.80;;
59856;SDS011;45733;52.668;6.860;2023-07-29T08:20:55;0.52;;;0.52;;
59856;SDS011;45733;52.668;6.860;2023-07-29T08:23:26;0.60;;;0.60;;
59856;SDS011;45733;52.668;6.860;2023-07-29T08:25:54;0.70;;;0.70;;
59856;SDS011;45733;52.668;6.860;2023-07-29T08:28:26;0.70;;;0.70;;
59856;SDS011;45733;52.668;6.860;2023-07-29T08:30:55;0.82;;;0.82;;
59856;SDS011;45733;52.668;6.860;2023-07-29T08:33:21;0.80;;;0.80;;
59856;SDS011;45733;52.668;6.860;2023-07-29T08:35:47;0.85;;;0.85;;
59856;SDS011;45733;52.668;6.860;2023-07-29T08:38:13;0.88;;;0.88;;
59856;SDS011;45733;52.668;6.860;2023-07-29T08:40:41;0.82;;;0.82;;
59856;SDS011;45733;52.668;6.860;2023-07-29T08:43:10;0.82;;;0.82;;
59856;SDS011;45733;52.668;6.860;2023-07-29T08:45:37;0.88;;;0.88;;
59856;SDS011;45733;52.668;6.860;2023-07-29T08:48:08;0.73;;;0.73;;
59856;SDS011;45733;52.668;6.860;2023-07-29T08:50:35;0.88;;;0.88;;
59856;SDS011;45733;52.668;6.860;2023-07-29T08:53:05;0.77;;;0.77;;
59856;SDS011;45733;52.668;6.860;2023-07-29T08:55:31;0.82;;;0.82;;
59856;SDS011;45733;52.668;6.860;2023-07-29T08:57:58;0.75;;;0.75;;
59856;SDS011;45733;52.668;6.860;2023-07-29T09:00:25;0.82;;;0.82;;
59856;SDS011;45733;52.668;6.860;2023-07-29T09:02:52;0.85;;;0.85;;
59856;SDS011;45733;52.668;6.860;2023-07-29T09:05:18;0.85;;;0.85;;
59856;SDS011;45733;52.668;6.860;2023-07-29T09:07:53;0.75;;;0.75;;
59856;SDS011;45733;52.668;6.860;2023-07-29T09:10:21;0.80;;;0.80;;
59856;SDS011;45733;52.668;6.860;2023-07-29T09:12:48;0.80;;;0.80;;
59856;SDS011;45733;52.668;6.860;2023-07-29T09:15:25;0.77;;;0.77;;
59856;SDS011;45733;52.668;6.860;2023-07-29T09:17:57;0.80;;;0.80;;
59856;SDS011;45733;52.668;6.860;2023-07-29T09:20:23;0.70;;;0.70;;
59856;SDS011;45733;52.668;6.860;2023-07-29T09:22:50;0.88;;;0.88;;
59856;SDS011;45733;52.668;6.860;2023-07-29T09:25:16;0.80;;;0.80;;
59856;SDS011;45733;52.668;6.860;2023-07-29T09:27:49;1.02;;;1.02;;
59856;SDS011;45733;52.668;6.860;2023-07-29T09:30:17;0.50;;;0.50;;
59856;SDS011;45733;52.668;6.860;2023-07-29T09:32:43;0.73;;;0.73;;
59856;SDS011;45733;52.668;6.860;2023-07-29T09:35:12;0.90;;;0.90;;
59856;SDS011;45733;52.668;6.860;2023-07-29T09:37:38;1.20;;;1.20;;
59856;SDS011;45733;52.668;6.860;2023-07-29T09:40:05;1.23;;;1.23;;
59856;SDS011;45733;52.668;6.860;2023-07-29T09:42:32;1.10;;;1.10;;
59856;SDS011;45733;52.668;6.860;2023-07-29T09:44:57;0.98;;;0.98;;
59856;SDS011;45733;52.668;6.860;2023-07-29T09:47:24;1.10;;;0.93;;
59856;SDS011;45733;52.668;6.860;2023-07-29T09:49:51;1.50;;;1.48;;
59856;SDS011;45733;52.668;6.860;2023-07-29T09:52:18;0.30;;;0.30;;
59856;SDS011;45733;52.668;6.860;2023-07-29T09:54:44;0.98;;;0.98;;
59856;SDS011;45733;52.668;6.860;2023-07-29T09:57:13;0.30;;;0.30;;
59856;SDS011;45733;52.668;6.860;2023-07-29T09:59:39;0.88;;;0.88;;
59856;SDS011;45733;52.668;6.860;2023-07-29T10:02:09;0.93;;;0.93;;
59856;SDS011;45733;52.668;6.860;2023-07-29T10:04:41;0.43;;;0.43;;
59856;SDS011;45733;52.668;6.860;2023-07-29T10:07:08;0.68;;;0.68;;
59856;SDS011;45733;52.668;6.860;2023-07-29T10:09:35;0.77;;;0.77;;
59856;SDS011;45733;52.668;6.860;2023-07-29T10:12:02;0.55;;;0.55;;
59856;SDS011;45733;52.668;6.860;2023-07-29T10:14:31;0.80;;;0.80;;
59856;SDS011;45733;52.668;6.860;2023-07-29T10:16:57;0.82;;;0.82;;
59856;SDS011;45733;52.668;6.860;2023-07-29T10:19:23;0.30;;;0.30;;
59856;SDS011;45733;52.668;6.860;2023-07-29T10:21:51;0.95;;;0.95;;
59856;SDS011;45733;52.668;6.860;2023-07-29T10:24:22;1.05;;;1.05;;
59856;SDS011;45733;52.668;6.860;2023-07-29T10:26:53;1.02;;;1.02;;
59856;SDS011;45733;52.668;6.860;2023-07-29T10:29:27;0.30;;;0.30;;
59856;SDS011;45733;52.668;6.860;2023-07-29T10:31:57;1.10;;;1.10;;
59856;SDS011;45733;52.668;6.860;2023-07-29T10:34:25;0.98;;;0.98;;
59856;SDS011;45733;52.668;6.860;2023-07-29T10:36:52;0.82;;;0.82;;
59856;SDS011;45733;52.668;6.860;2023-07-29T10:39:19;1.13;;;1.13;;
59856;SDS011;45733;52.668;6.860;2023-07-29T10:41:54;0.30;;;0.30;;
59856;SDS011;45733;52.668;6.860;2023-07-29T10:49:50;0.93;;;0.93;;
59856;SDS011;45733;52.668;6.860;2023-07-29T10:53:02;0.82;;;0.82;;
59856;SDS011;45733;52.668;6.860;2023-07-29T10:55:46;0.57;;;0.57;;
59856;SDS011;45733;52.668;6.860;2023-07-29T11:00:41;0.95;;;0.95;;
59856;SDS011;45733;52.668;6.860;2023-07-29T11:03:08;0.30;;;0.30;;
59856;SDS011;45733;52.668;6.860;2023-07-29T11:05:44;0.30;;;0.30;;
59856;SDS011;45733;52.668;6.860;2023-07-29T11:08:29;0.93;;;0.93;;
59856;SDS011;45733;52.668;6.860;2023-07-29T11:13:28;0.30;;;0.30;;
59856;SDS011;45733;52.668;6.860;2023-07-29T11:15:54;0.50;;;0.50;;
59856;SDS011;45733;52.668;6.860;2023-07-29T11:18:21;0.55;;;0.55;;
59856;SDS011;45733;52.668;6.860;2023-07-29T11:20:47;0.70;;;0.70;;
59856;SDS011;45733;52.668;6.860;2023-07-29T11:23:15;0.55;;;0.55;;
59856;SDS011;45733;52.668;6.860;2023-07-29T11:25:41;1.02;;;1.02;;
59856;SDS011;45733;52.668;6.860;2023-07-29T11:28:07;0.38;;;0.38;;
59856;SDS011;45733;52.668;6.860;2023-07-29T11:30:33;0.63;;;0.63;;
59856;SDS011;45733;52.668;6.860;2023-07-29T11:32:59;0.73;;;0.73;;
59856;SDS011;45733;52.668;6.860;2023-07-29T11:35:25;0.60;;;0.60;;
59856;SDS011;45733;52.668;6.860;2023-07-29T11:38:02;0.80;;;0.80;;
59856;SDS011;45733;52.668;6.860;2023-07-29T11:40:39;0.90;;;0.90;;
59856;SDS011;45733;52.668;6.860;2023-07-29T11:43:05;0.60;;;0.60;;
59856;SDS011;45733;52.668;6.860;2023-07-29T11:45:30;0.70;;;0.70;;
59856;SDS011;45733;52.668;6.860;2023-07-29T11:47:56;0.90;;;0.90;;
59856;SDS011;45733;52.668;6.860;2023-07-29T11:50:23;0.70;;;0.70;;
59856;SDS011;45733;52.668;6.860;2023-07-29T11:52:51;0.90;;;0.90;;
59856;SDS011;45733;52.668;6.860;2023-07-29T11:55:18;0.80;;;0.80;;
59856;SDS011;45733;52.668;6.860;2023-07-29T11:57:44;0.88;;;0.88;;
59856;SDS011;45733;52.668;6.860;2023-07-29T12:00:16;0.80;;;0.80;;
59856;SDS011;45733;52.668;6.860;2023-07-29T12:02:43;0.80;;;0.80;;
59856;SDS011;45733;52.668;6.860;2023-07-29T12:05:11;0.70;;;0.70;;
59856;SDS011;45733;52.668;6.860;2023-07-29T12:07:39;0.30;;;0.30;;
59856;SDS011;45733;52.668;6.860;2023-07-29T12:10:06;0.85;;;0.85;;
59856;SDS011;45733;52.668;6.860;2023-07-29T12:12:32;0.55;;;0.55;;
59856;SDS011;45733;52.668;6.860;2023-07-29T12:14:58;0.75;;;0.75;;
59856;SDS011;45733;52.668;6.860;2023-07-29T12:17:24;0.20;;;0.20;;
59856;SDS011;45733;52.668;6.860;2023-07-29T12:19:49;0.30;;;0.30;;
59856;SDS011;45733;52.668;6.860;2023-07-29T12:22:19;0.60;;;0.60;;
59856;SDS011;45733;52.668;6.860;2023-07-29T12:24:45;0.63;;;0.63;;
59856;SDS011;45733;52.668;6.860;2023-07-29T12:27:13;0.30;;;0.30;;
59856;SDS011;45733;52.668;6.860;2023-07-29T12:29:41;0.30;;;0.30;;
59856;SDS011;45733;52.668;6.860;2023-07-29T12:32:07;0.30;;;0.30;;
59856;SDS011;45733;52.668;6.860;2023-07-29T12:34:33;0.30;;;0.30;;
59856;SDS011;45733;52.668;6.860;2023-07-29T12:37:02;0.80;;;0.80;;
59856;SDS011;45733;52.668;6.860;2023-07-29T12:39:35;0.30;;;0.30;;
59856;SDS011;45733;52.668;6.860;2023-07-29T12:42:06;0.30;;;0.30;;
59856;SDS011;45733;52.668;6.860;2023-07-29T12:44:33;0.20;;;0.20;;
59856;SDS011;45733;52.668;6.860;2023-07-29T12:47:03;0.40;;;0.40;;
59856;SDS011;45733;52.668;6.860;2023-07-29T12:49:31;0.30;;;0.30;;
59856;SDS011;45733;52.668;6.860;2023-07-29T12:51:57;0.30;;;0.30;;
59856;SDS011;45733;52.668;6.860;2023-07-29T12:54:23;0.30;;;0.30;;
59856;SDS011;45733;52.668;6.860;2023-07-29T12:56:49;0.30;;;0.30;;
59856;SDS011;45733;52.668;6.860;2023-07-29T12:59:15;0.30;;;0.30;;
59856;SDS011;45733;52.668;6.860;2023-07-29T13:01:41;0.30;;;0.30;;
59856;SDS011;45733;52.668;6.860;2023-07-29T13:04:07;0.30;;;0.30;;
59856;SDS011;45733;52.668;6.860;2023-07-29T13:06:32;0.30;;;0.30;;
59856;SDS011;45733;52.668;6.860;2023-07-29T13:08:58;0.30;;;0.30;;
59856;SDS011;45733;52.668;6.860;2023-07-29T13:11:24;0.32;;;0.32;;
59856;SDS011;45733;52.668;6.860;2023-07-29T13:13:49;0.30;;;0.30;;
59856;SDS011;45733;52.668;6.860;2023-07-29T13:16:15;0.30;;;0.30;;
59856;SDS011;45733;52.668;6.860;2023-07-29T13:18:41;0.30;;;0.30;;
59856;SDS011;45733;52.668;6.860;2023-07-29T13:21:08;0.30;;;0.30;;
59856;SDS011;45733;52.668;6.860;2023-07-29T13:23:34;0.30;;;0.30;;
59856;SDS011;45733;52.668;6.860;2023-07-29T13:26:00;0.30;;;0.30;;
59856;SDS011;45733;52.668;6.860;2023-07-29T13:28:26;0.30;;;0.30;;
59856;SDS011;45733;52.668;6.860;2023-07-29T13:30:52;0.30;;;0.30;;
59856;SDS011;45733;52.668;6.860;2023-07-29T13:33:17;0.40;;;0.40;;
59856;SDS011;45733;52.668;6.860;2023-07-29T13:35:43;0.30;;;0.30;;
59856;SDS011;45733;52.668;6.860;2023-07-29T13:38:09;0.30;;;0.30;;
59856;SDS011;45733;52.668;6.860;2023-07-29T13:40:36;0.30;;;0.30;;
59856;SDS011;45733;52.668;6.860;2023-07-29T13:43:01;0.30;;;0.30;;
59856;SDS011;45733;52.668;6.860;2023-07-29T13:45:27;0.30;;;0.30;;
59856;SDS011;45733;52.668;6.860;2023-07-29T13:47:53;0.30;;;0.30;;
59856;SDS011;45733;52.668;6.860;2023-07-29T13:50:18;0.30;;;0.30;;
59856;SDS011;45733;52.668;6.860;2023-07-29T13:52:44;0.30;;;0.30;;
59856;SDS011;45733;52.668;6.860;2023-07-29T13:55:10;0.30;;;0.30;;
59856;SDS011;45733;52.668;6.860;2023-07-29T13:57:36;0.30;;;0.30;;
59856;SDS011;45733;52.668;6.860;2023-07-29T14:00:05;0.30;;;0.30;;
59856;SDS011;45733;52.668;6.860;2023-07-29T14:02:31;0.30;;;0.30;;
59856;SDS011;45733;52.668;6.860;2023-07-29T14:04:57;0.30;;;0.30;;
59856;SDS011;45733;52.668;6.860;2023-07-29T14:07:22;0.30;;;0.30;;
59856;SDS011;45733;52.668;6.860;2023-07-29T14:09:48;0.30;;;0.30;;
59856;SDS011;45733;52.668;6.860;2023-07-29T14:12:14;0.30;;;0.30;;
59856;SDS011;45733;52.668;6.860;2023-07-29T14:14:43;0.30;;;0.30;;
59856;SDS011;45733;52.668;6.860;2023-07-29T14:17:09;0.30;;;0.30;;
59856;SDS011;45733;52.668;6.860;2023-07-29T14:19:35;0.30;;;0.30;;
59856;SDS011;45733;52.668;6.860;2023-07-29T14:22:01;0.40;;;0.40;;
59856;SDS011;45733;52.668;6.860;2023-07-29T14:24:27;0.40;;;0.40;;
59856;SDS011;45733;52.668;6.860;2023-07-29T14:26:52;0.30;;;0.30;;
59856;SDS011;45733;52.668;6.860;2023-07-29T14:29:18;0.30;;;0.30;;
59856;SDS011;45733;52.668;6.860;2023-07-29T14:31:44;0.30;;;0.30;;
59856;SDS011;45733;52.668;6.860;2023-07-29T14:34:09;0.30;;;0.30;;
59856;SDS011;45733;52.668;6.860;2023-07-29T14:36:35;0.30;;;0.30;;
59856;SDS011;45733;52.668;6.860;2023-07-29T14:39:01;0.40;;;0.40;;
59856;SDS011;45733;52.668;6.860;2023-07-29T14:41:30;0.30;;;0.30;;
59856;SDS011;45733;52.668;6.860;2023-07-29T14:43:56;0.30;;;0.30;;
59856;SDS011;45733;52.668;6.860;2023-07-29T14:46:22;0.30;;;0.30;;
59856;SDS011;45733;52.668;6.860;2023-07-29T14:48:48;0.30;;;0.30;;
59856;SDS011;45733;52.668;6.860;2023-07-29T14:51:14;0.30;;;0.30;;
59856;SDS011;45733;52.668;6.860;2023-07-29T14:53:40;0.30;;;0.30;;
59856;SDS011;45733;52.668;6.860;2023-07-29T14:56:06;0.30;;;0.30;;
59856;SDS011;45733;52.668;6.860;2023-07-29T14:58:34;0.40;;;0.40;;
59856;SDS011;45733;52.668;6.860;2023-07-29T15:01:00;0.30;;;0.30;;
59856;SDS011;45733;52.668;6.860;2023-07-29T15:03:25;0.30;;;0.30;;
59856;SDS011;45733;52.668;6.860;2023-07-29T15:05:51;0.38;;;0.38;;
59856;SDS011;45733;52.668;6.860;2023-07-29T15:08:17;0.40;;;0.40;;
59856;SDS011;45733;52.668;6.860;2023-07-29T15:10:49;0.30;;;0.30;;
59856;SDS011;45733;52.668;6.860;2023-07-29T15:13:15;0.30;;;0.30;;
59856;SDS011;45733;52.668;6.860;2023-07-29T15:15:49;0.30;;;0.30;;
59856;SDS011;45733;52.668;6.860;2023-07-29T15:18:21;0.30;;;0.30;;
59856;SDS011;45733;52.668;6.860;2023-07-29T15:20:46;0.30;;;0.30;;
59856;SDS011;45733;52.668;6.860;2023-07-29T15:23:12;0.40;;;0.40;;
59856;SDS011;45733;52.668;6.860;2023-07-29T15:25:38;0.30;;;0.30;;
59856;SDS011;45733;52.668;6.860;2023-07-29T15:28:04;0.40;;;0.40;;
59856;SDS011;45733;52.668;6.860;2023-07-29T15:30:29;0.40;;;0.40;;
59856;SDS011;45733;52.668;6.860;2023-07-29T15:32:55;0.40;;;0.40;;
59856;SDS011;45733;52.668;6.860;2023-07-29T15:35:21;0.40;;;0.40;;
59856;SDS011;45733;52.668;6.860;2023-07-29T15:37:47;0.40;;;0.40;;